Kaneohe, HI (96744)

1:45 AM HST on January 25, 2015 (GMT -1000)
Keapuka | Change Station
CLOSE
Current Station
Personal Weather Station
Location: Kaneohe, HI
Elevation: 164 ft
Nearby Weather Stations
Active Advisory: High Surf Warning

Elev 164 ft 21.40 °N, 157.81 °W | Updated 11 seconds ago

Overcast
Overcast
65.8 °F
Feels Like 65.8 °F
N
0.0
Wind Variable Wind from East

Today
High -- | Low -- °F
--% Chance of Precip.
Yesterday
High -- | Low -- °F
Precip. -- in
7:10 AM 6:16 PM
Waxing Crescent, 31% visible
Pressure 30.07 in
Visibility -9999.0 miles
Clouds Overcast 3000 ft
Dew Point 66 °F
Humidity 99%
Rainfall 0.04 in
Snow Depth Not available.
UV 0 out of 12
Pollen Not available.
Air Quality Not available.
Flu Activity Not available.
SPECI PHNG 251110Z 23008KT OVC030 19/18 A3007 RMK AO2 T01940178 $

More Conditions Fewer Conditions

Pressure 30.07 in
Visibility -9999.0 miles
Clouds Overcast 3000 ft
Dew Point 66 °F
Humidity 99%
Rainfall 0.04 in
Snow Depth Not available.
UV 0 out of 12
Pollen Not available.
Air Quality Not available.
Flu Activity Not available.
SPECI PHNG 251110Z 23008KT OVC030 19/18 A3007 RMK AO2 T01940178 $

More Conditions Fewer Conditions

10-Day Weather Forecast

Almanac

Astronomy

Jan. 25, 2015 Rise Set
Actual Time
Civil Twilight
Nautical Twilight
Astronomical Twilight
Moon
Length of Visible Light
Length of Day
Tomorrow will be .
, % of the Moon is Illuminated

Today's Extremes

State Highs State Lows

Community

WunderPhotos

Upload Photos

1,789,874 photos uploaded!

WunderBlogs® & News

Nearby

Air Quality

  Air Quality AQ Index Pollutant
Not available.

Snow Depth

Station Depth Elevation

Earthquake Activity

City Distance Mag. Time & Date
Minimum magnitude displayed is 2.5.

Coastal Water Temperatures

Place Temperature

Nearby Weather Stations